createdAt,value
2023-03-03T00:00:28.325Z,2.61
2023-03-03T00:01:00.412Z,2.61
2023-03-03T00:01:29.084Z,2.61
2023-03-03T00:02:01.115Z,2.61
2023-03-03T00:02:31.796Z,2.61
2023-03-03T00:03:02.999Z,2.72
2023-03-03T00:03:33.385Z,2.72
2023-03-03T00:04:04.897Z,2.61
2023-03-03T00:04:35.133Z,2.61
2023-03-03T00:05:07.521Z,2.61
2023-03-03T00:05:37.532Z,2.61
2023-03-03T00:06:10.199Z,2.61
2023-03-03T00:06:39.275Z,2.61
2023-03-03T00:07:10.129Z,2.61
2023-03-03T00:07:41.833Z,2.61
2023-03-03T00:08:12.112Z,2.61
2023-03-03T00:08:43.758Z,2.50
2023-03-03T00:09:14.210Z,2.50
2023-03-03T00:09:45.810Z,2.38
2023-03-03T00:10:16.115Z,2.38
2023-03-03T00:10:48.721Z,2.38
2023-03-03T00:11:19.065Z,2.27
2023-03-03T00:11:50.192Z,2.27
2023-03-03T00:12:20.106Z,2.22
2023-03-03T00:12:51.842Z,2.22
2023-03-03T00:13:22.099Z,2.22
2023-03-03T00:13:53.742Z,2.22
2023-03-03T00:14:24.063Z,2.22
2023-03-03T00:14:55.806Z,2.22
2023-03-03T00:15:26.426Z,2.22
2023-03-03T00:15:58.636Z,2.11
2023-03-03T00:16:29.085Z,1.88
2023-03-03T00:16:59.737Z,1.77
2023-03-03T00:17:30.217Z,1.77
2023-03-03T00:18:01.920Z,1.72
2023-03-03T00:18:32.700Z,1.61
2023-03-03T00:19:03.957Z,1.61
2023-03-03T00:19:34.117Z,1.61
2023-03-03T00:20:06.445Z,1.50
2023-03-03T00:20:47.700Z,1.50
2023-03-03T00:21:08.801Z,1.38
2023-03-03T00:21:39.917Z,1.38
2023-03-03T00:22:09.860Z,1.38
2023-03-03T00:22:40.315Z,1.38
2023-03-03T00:23:11.977Z,1.38
2023-03-03T00:23:42.129Z,1.38
2023-03-03T00:24:13.810Z,1.38
2023-03-03T00:24:44.052Z,1.38
2023-03-03T00:25:16.329Z,1.38
2023-03-03T00:25:46.907Z,1.38
2023-03-03T00:26:17.800Z,1.38
2023-03-03T00:26:49.105Z,1.38
2023-03-03T00:27:20.017Z,1.38
2023-03-03T00:27:50.043Z,1.38
2023-03-03T00:28:22.872Z,1.38
2023-03-03T00:28:52.170Z,1.38
2023-03-03T00:29:23.787Z,1.27
2023-03-03T00:29:54.074Z,1.27
2023-03-03T00:30:26.512Z,1.27
2023-03-03T00:30:56.177Z,1.27
2023-03-03T00:31:27.776Z,1.27
2023-03-03T00:31:59.274Z,1.27
2023-03-03T00:32:29.935Z,1.27
2023-03-03T00:33:00.113Z,1.27
2023-03-03T00:33:31.805Z,1.38
2023-03-03T00:34:02.228Z,1.38
2023-03-03T00:34:35.119Z,1.38
2023-03-03T00:35:04.611Z,1.50
2023-03-03T00:35:36.142Z,1.50
2023-03-03T00:36:06.394Z,1.61
2023-03-03T00:36:37.864Z,1.61
2023-03-03T00:37:09.053Z,1.61
2023-03-03T00:37:39.771Z,1.72
2023-03-03T00:38:10.072Z,1.72
2023-03-03T00:38:42.266Z,1.61
2023-03-03T00:39:12.198Z,1.61
2023-03-03T00:39:43.751Z,1.61
2023-03-03T00:40:15.574Z,1.61
2023-03-03T00:40:48.978Z,1.61
2023-03-03T00:41:16.506Z,1.61
2023-03-03T00:41:47.797Z,1.61
2023-03-03T00:42:19.065Z,1.61
2023-03-03T00:42:49.825Z,1.61
2023-03-03T00:43:20.114Z,1.61
2023-03-03T00:43:51.874Z,1.61
2023-03-03T00:44:22.084Z,1.61
2023-03-03T00:44:53.805Z,1.61
2023-03-03T00:45:25.656Z,1.61
2023-03-03T00:45:55.910Z,1.61
2023-03-03T00:46:26.520Z,1.50
2023-03-03T00:46:57.824Z,1.50
2023-03-03T00:47:31.430Z,1.50
2023-03-03T00:47:59.797Z,1.50
2023-03-03T00:48:30.134Z,1.61
2023-03-03T00:49:01.938Z,1.61
2023-03-03T00:49:32.573Z,1.61
2023-03-03T00:50:04.418Z,1.61
2023-03-03T00:50:34.079Z,1.61
2023-03-03T00:51:05.858Z,1.61
2023-03-03T00:51:41.213Z,1.61
2023-03-03T00:52:08.380Z,1.61
2023-03-03T00:52:39.096Z,1.61
2023-03-03T00:53:09.777Z,1.61
2023-03-03T00:53:40.078Z,1.61
2023-03-03T00:54:11.763Z,1.50
2023-03-03T00:54:42.314Z,1.38
2023-03-03T00:55:14.172Z,1.27
2023-03-03T00:55:44.057Z,1.27
2023-03-03T00:56:15.877Z,1.27
2023-03-03T00:56:46.808Z,1.38
2023-03-03T00:57:17.751Z,1.38
2023-03-03T00:57:49.049Z,1.50
2023-03-03T00:58:19.784Z,1.50
2023-03-03T00:58:50.746Z,1.61
2023-03-03T00:59:21.774Z,1.61
2023-03-03T00:59:52.057Z,1.61
2023-03-03T01:00:25.786Z,1.61
2023-03-03T01:00:54.769Z,1.61
2023-03-03T01:01:25.901Z,1.50
2023-03-03T01:01:56.133Z,1.50
2023-03-03T01:02:27.765Z,1.50
2023-03-03T01:02:59.140Z,1.50
2023-03-03T01:03:30.179Z,1.50
2023-03-03T01:04:00.157Z,1.50
2023-03-03T01:04:31.751Z,1.50
2023-03-03T01:05:03.000Z,1.50
2023-03-03T01:05:34.135Z,1.61
2023-03-03T01:06:04.107Z,1.61
2023-03-03T01:06:35.102Z,1.61
2023-03-03T01:07:06.495Z,1.61
2023-03-03T01:07:38.290Z,1.61
2023-03-03T01:08:09.707Z,1.50
2023-03-03T01:08:39.804Z,1.50
2023-03-03T01:09:10.091Z,1.50
2023-03-03T01:09:41.762Z,1.50
2023-03-03T01:10:12.488Z,1.38
2023-03-03T01:10:44.179Z,1.38
2023-03-03T01:11:14.074Z,1.38
2023-03-03T01:11:45.781Z,1.38
2023-03-03T01:12:16.715Z,1.38
2023-03-03T01:12:49.156Z,1.27
2023-03-03T01:13:19.077Z,1.27
2023-03-03T01:13:49.114Z,1.27
2023-03-03T01:14:20.998Z,1.27
2023-03-03T01:14:51.185Z,1.27
2023-03-03T01:15:23.531Z,1.27
2023-03-03T01:15:53.324Z,1.27
2023-03-03T01:16:24.800Z,1.22
2023-03-03T01:16:55.123Z,1.22
2023-03-03T01:17:27.104Z,1.22
2023-03-03T01:17:57.036Z,1.22
2023-03-03T01:18:29.804Z,1.22
2023-03-03T01:18:59.685Z,1.22
2023-03-03T01:19:30.977Z,1.22
2023-03-03T01:20:02.294Z,1.22
2023-03-03T01:20:37.976Z,1.22
2023-03-03T01:21:03.168Z,1.22
2023-03-03T01:21:34.083Z,1.22
2023-03-03T01:22:05.723Z,1.11
2023-03-03T01:22:36.062Z,1.11
2023-03-03T01:23:07.774Z,1.11
2023-03-03T01:23:39.097Z,1.11
2023-03-03T01:24:10.774Z,1.11
2023-03-03T01:24:40.056Z,1.22
2023-03-03T01:25:12.199Z,1.22
2023-03-03T01:25:42.633Z,1.22
2023-03-03T01:26:13.761Z,1.22
2023-03-03T01:26:44.099Z,1.22
2023-03-03T01:27:15.762Z,1.11
2023-03-03T01:27:46.330Z,1.11
2023-03-03T01:28:17.777Z,1.11
2023-03-03T01:28:49.264Z,1.11
2023-03-03T01:29:19.794Z,1.11
2023-03-03T01:29:50.277Z,1.11
2023-03-03T01:30:22.978Z,1.11
2023-03-03T01:30:52.080Z,1.00
2023-03-03T01:31:23.929Z,1.00
2023-03-03T01:31:54.185Z,1.00
2023-03-03T01:32:26.282Z,1.00
2023-03-03T01:32:56.134Z,1.00
2023-03-03T01:33:27.758Z,1.00
2023-03-03T01:33:59.048Z,1.00
2023-03-03T01:34:29.872Z,1.00
2023-03-03T01:35:00.064Z,1.00
2023-03-03T01:35:32.275Z,1.00
2023-03-03T01:36:02.145Z,1.00
2023-03-03T01:36:33.851Z,1.00
2023-03-03T01:37:04.055Z,1.00
2023-03-03T01:37:36.008Z,1.00
2023-03-03T01:38:06.358Z,1.00
2023-03-03T01:38:37.789Z,1.00
2023-03-03T01:39:09.408Z,1.00
2023-03-03T01:39:39.758Z,1.00
2023-03-03T01:40:10.402Z,1.00
2023-03-03T01:40:44.951Z,.88
2023-03-03T01:41:12.068Z,.88
2023-03-03T01:41:43.732Z,.88
2023-03-03T01:42:14.093Z,.88
2023-03-03T01:42:45.770Z,.77
2023-03-03T01:43:16.266Z,.77
2023-03-03T01:43:47.878Z,.77
2023-03-03T01:44:19.115Z,.77
2023-03-03T01:44:49.846Z,.77
2023-03-03T01:45:21.364Z,.77
2023-03-03T01:45:52.458Z,.77
2023-03-03T01:46:22.122Z,.77
2023-03-03T01:46:53.768Z,.77
2023-03-03T01:47:24.092Z,.72
2023-03-03T01:47:55.794Z,.72
2023-03-03T01:48:26.379Z,.72
2023-03-03T01:48:57.765Z,.72
2023-03-03T01:49:29.048Z,.72
2023-03-03T01:49:59.900Z,.61
2023-03-03T01:50:30.956Z,.61
2023-03-03T01:51:02.036Z,.61
2023-03-03T01:51:32.116Z,.61
2023-03-03T01:52:03.885Z,.61
2023-03-03T01:52:34.050Z,.61
2023-03-03T01:53:05.733Z,.61
2023-03-03T01:53:36.187Z,.61
2023-03-03T01:54:07.778Z,.61
2023-03-03T01:54:39.129Z,.61
2023-03-03T01:55:10.732Z,.61
2023-03-03T01:55:40.090Z,.61
2023-03-03T01:56:11.762Z,.72
2023-03-03T01:56:42.281Z,.72
2023-03-03T01:57:13.843Z,.72
2023-03-03T01:57:44.064Z,.72
2023-03-03T01:58:15.860Z,.72
2023-03-03T01:58:46.410Z,.72
2023-03-03T01:59:18.366Z,.72
2023-03-03T01:59:49.134Z,.72
2023-03-03T02:00:21.571Z,.72
2023-03-03T02:00:50.563Z,.72
2023-03-03T02:01:21.866Z,.72
2023-03-03T02:01:52.156Z,.72
2023-03-03T02:02:23.875Z,.72
2023-03-03T02:02:54.078Z,.72
2023-03-03T02:03:25.765Z,.72
2023-03-03T02:03:56.511Z,.72
2023-03-03T02:04:27.756Z,.72
2023-03-03T02:04:59.479Z,.72
2023-03-03T02:05:30.209Z,.72
2023-03-03T02:06:00.110Z,.72
2023-03-03T02:06:31.792Z,.72
2023-03-03T02:07:02.084Z,.72
2023-03-03T02:07:33.062Z,.72
2023-03-03T02:08:05.023Z,.72
2023-03-03T02:08:35.045Z,.72
2023-03-03T02:09:07.065Z,.72
2023-03-03T02:09:37.032Z,.72
2023-03-03T02:10:10.173Z,.72
2023-03-03T02:10:39.047Z,.72
2023-03-03T02:11:10.988Z,.61
2023-03-03T02:11:41.063Z,.61
2023-03-03T02:12:12.747Z,.61
2023-03-03T02:12:43.047Z,.61
2023-03-03T02:13:14.773Z,.61
2023-03-03T02:13:45.033Z,.61
2023-03-03T02:14:16.864Z,.61
2023-03-03T02:14:47.033Z,.61
2023-03-03T02:15:21.402Z,.61
2023-03-03T02:15:49.173Z,.61
2023-03-03T02:16:20.822Z,.61
2023-03-03T02:16:51.370Z,.61
2023-03-03T02:17:22.760Z,.61
2023-03-03T02:17:53.092Z,.61
2023-03-03T02:18:24.746Z,.61
2023-03-03T02:18:55.039Z,.61
2023-03-03T02:19:27.288Z,.50
2023-03-03T02:19:57.040Z,.50
2023-03-03T02:20:38.021Z,.50
2023-03-03T02:20:59.043Z,.50
2023-03-03T02:21:30.827Z,.50
2023-03-03T02:22:01.389Z,.50
2023-03-03T02:22:32.743Z,.50
2023-03-03T02:23:03.188Z,.50
2023-03-03T02:23:34.894Z,.50
2023-03-03T02:24:05.096Z,.50
2023-03-03T02:24:36.758Z,.50
2023-03-03T02:25:07.616Z,.50
2023-03-03T02:25:39.794Z,.50
2023-03-03T02:26:09.022Z,.50
2023-03-03T02:26:40.778Z,.50
2023-03-03T02:27:11.198Z,.50
2023-03-03T02:27:42.731Z,.50
2023-03-03T02:28:13.124Z,.50
2023-03-03T02:28:44.775Z,.50
2023-03-03T02:29:15.074Z,.50
2023-03-03T02:29:47.071Z,.50
2023-03-03T02:30:18.864Z,.50
2023-03-03T02:30:49.793Z,.50
2023-03-03T02:31:19.219Z,.50
2023-03-03T02:31:51.068Z,.50
2023-03-03T02:32:21.235Z,.50
2023-03-03T02:32:53.307Z,.50
2023-03-03T02:33:23.044Z,.50
2023-03-03T02:33:54.764Z,.50
2023-03-03T02:34:25.027Z,.50
2023-03-03T02:34:56.714Z,.50
2023-03-03T02:35:28.031Z,.50
2023-03-03T02:35:59.822Z,.50
2023-03-03T02:36:29.140Z,.50
2023-03-03T02:37:00.903Z,.50
2023-03-03T02:37:31.227Z,.50
2023-03-03T02:38:02.718Z,.50
2023-03-03T02:38:33.078Z,.50
2023-03-03T02:39:04.752Z,.50
2023-03-03T02:39:35.049Z,.38
2023-03-03T02:40:07.518Z,.38
2023-03-03T02:40:39.010Z,.38
2023-03-03T02:41:09.820Z,.27
2023-03-03T02:41:39.093Z,.27
2023-03-03T02:42:10.850Z,.27
2023-03-03T02:42:41.049Z,.27
2023-03-03T02:43:12.725Z,.27
2023-03-03T02:43:43.458Z,.38
2023-03-03T02:44:14.724Z,.38
2023-03-03T02:44:45.007Z,.38
2023-03-03T02:45:17.648Z,.38
2023-03-03T02:45:47.154Z,.38
2023-03-03T02:46:19.771Z,.38
2023-03-03T02:46:49.031Z,.38
2023-03-03T02:47:20.934Z,.38
2023-03-03T02:47:51.047Z,.38
2023-03-03T02:48:22.721Z,.38
2023-03-03T02:48:53.022Z,.38
2023-03-03T02:49:24.944Z,.38
2023-03-03T02:49:55.038Z,.38
2023-03-03T02:50:27.887Z,.38
2023-03-03T02:50:57.024Z,.38
2023-03-03T02:51:29.731Z,.38
2023-03-03T02:51:59.001Z,.38
2023-03-03T02:52:30.739Z,.38
2023-03-03T02:53:01.393Z,.38
2023-03-03T02:53:32.718Z,.38
2023-03-03T02:54:03.169Z,.38
2023-03-03T02:54:34.779Z,.38
2023-03-03T02:55:06.020Z,.38
2023-03-03T02:55:36.784Z,.38
2023-03-03T02:56:07.056Z,.38
2023-03-03T02:56:39.782Z,.38
2023-03-03T02:57:09.584Z,.38
2023-03-03T02:57:40.777Z,.38
2023-03-03T02:58:11.082Z,.38
2023-03-03T02:58:42.713Z,.38
2023-03-03T02:59:13.068Z,.27
2023-03-03T02:59:45.426Z,.27
2023-03-03T03:00:16.692Z,.27
2023-03-03T03:00:51.797Z,.27
2023-03-03T03:01:17.207Z,.27
2023-03-03T03:01:50.012Z,.27
2023-03-03T03:02:19.101Z,.27
2023-03-03T03:02:50.771Z,.27
2023-03-03T03:03:21.493Z,.27
2023-03-03T03:03:52.826Z,.27
2023-03-03T03:04:23.120Z,.27
2023-03-03T03:04:55.069Z,.27
2023-03-03T03:05:25.553Z,.27
2023-03-03T03:05:57.055Z,.27
2023-03-03T03:06:27.037Z,.27
2023-03-03T03:06:59.026Z,.27
2023-03-03T03:07:29.058Z,.27
2023-03-03T03:08:00.865Z,.27
2023-03-03T03:08:31.238Z,.27
2023-03-03T03:09:02.741Z,.27
2023-03-03T03:09:33.058Z,.27
2023-03-03T03:10:05.845Z,.27
2023-03-03T03:10:35.539Z,.27
2023-03-03T03:11:07.490Z,.27
2023-03-03T03:11:37.057Z,.27
2023-03-03T03:12:09.777Z,.27
2023-03-03T03:12:39.012Z,.27
2023-03-03T03:13:11.325Z,.27
2023-03-03T03:13:41.061Z,.27
2023-03-03T03:14:12.721Z,.27
2023-03-03T03:14:43.024Z,.27
2023-03-03T03:15:15.523Z,.27
2023-03-03T03:15:45.085Z,.27
2023-03-03T03:16:16.799Z,.27
2023-03-03T03:16:47.110Z,.27
2023-03-03T03:17:19.806Z,.27
2023-03-03T03:17:49.033Z,.27
2023-03-03T03:18:20.739Z,.27
2023-03-03T03:18:51.052Z,.27
2023-03-03T03:19:22.747Z,.27
2023-03-03T03:19:53.021Z,.27
2023-03-03T03:20:25.169Z,.27
2023-03-03T03:20:55.034Z,.27
2023-03-03T03:21:27.106Z,.27
2023-03-03T03:21:57.069Z,.27
2023-03-03T03:22:30.615Z,.27
2023-03-03T03:22:59.068Z,.27
2023-03-03T03:23:30.773Z,.27
2023-03-03T03:24:02.041Z,.22
2023-03-03T03:24:32.762Z,.22
2023-03-03T03:25:03.105Z,.22
2023-03-03T03:25:35.292Z,.22
2023-03-03T03:26:05.165Z,.22
2023-03-03T03:26:37.390Z,.22
2023-03-03T03:27:07.457Z,.22
2023-03-03T03:27:39.681Z,.22
2023-03-03T03:28:09.046Z,.27
2023-03-03T03:28:40.781Z,.22
2023-03-03T03:29:11.112Z,.22
2023-03-03T03:29:42.685Z,.22
2023-03-03T03:30:14.239Z,.22
2023-03-03T03:30:44.804Z,.22
2023-03-03T03:31:15.123Z,.22
2023-03-03T03:31:47.049Z,.22
2023-03-03T03:32:17.060Z,.22
2023-03-03T03:32:49.796Z,.22
2023-03-03T03:33:19.017Z,.22
2023-03-03T03:33:50.778Z,.22
2023-03-03T03:34:21.088Z,.22
2023-03-03T03:34:52.735Z,.22
2023-03-03T03:35:23.612Z,.22
2023-03-03T03:35:54.763Z,.22
2023-03-03T03:36:25.005Z,.22
2023-03-03T03:36:56.720Z,.22
2023-03-03T03:37:27.491Z,.22
2023-03-03T03:37:59.767Z,.11
2023-03-03T03:38:29.021Z,.11
2023-03-03T03:39:01.392Z,.11
2023-03-03T03:39:31.186Z,.11
2023-03-03T03:40:03.314Z,.11
2023-03-03T03:40:39.646Z,.11
2023-03-03T03:41:04.744Z,.11
2023-03-03T03:41:35.042Z,.11
2023-03-03T03:42:07.093Z,.11
2023-03-03T03:42:37.022Z,.11
2023-03-03T03:43:09.728Z,.11
2023-03-03T03:43:39.062Z,.11
2023-03-03T03:44:10.786Z,.11
2023-03-03T03:44:41.062Z,.11
2023-03-03T03:45:14.150Z,.11
2023-03-03T03:45:43.117Z,.11
2023-03-03T03:46:14.769Z,.11
2023-03-03T03:46:45.078Z,.11
2023-03-03T03:47:16.757Z,.11
2023-03-03T03:47:47.081Z,.11
2023-03-03T03:48:19.744Z,.11
2023-03-03T03:48:49.039Z,.11
2023-03-03T03:49:20.976Z,.11
2023-03-03T03:49:51.073Z,.11
2023-03-03T03:50:23.354Z,.11
2023-03-03T03:50:53.610Z,.11
2023-03-03T03:51:24.794Z,.11
2023-03-03T03:51:55.018Z,.11
2023-03-03T03:52:27.071Z,.11
2023-03-03T03:52:57.113Z,.11
2023-03-03T03:53:29.755Z,.11
2023-03-03T03:53:59.150Z,.11
2023-03-03T03:54:30.843Z,.11
2023-03-03T03:55:01.641Z,.11
2023-03-03T03:55:33.171Z,.11
2023-03-03T03:56:03.150Z,0
2023-03-03T03:56:34.757Z,0
2023-03-03T03:57:05.077Z,0
2023-03-03T03:57:36.743Z,0
2023-03-03T03:58:07.062Z,0
2023-03-03T03:58:39.727Z,0
2023-03-03T03:59:09.007Z,0
2023-03-03T03:59:40.701Z,0
2023-03-03T04:00:13.072Z,0
2023-03-03T04:00:46.594Z,0
2023-03-03T04:01:13.061Z,0
2023-03-03T04:01:44.777Z,0
2023-03-03T04:02:15.061Z,0
2023-03-03T04:02:47.249Z,0
2023-03-03T04:03:17.309Z,0
2023-03-03T04:03:49.790Z,0
2023-03-03T04:04:19.854Z,0
2023-03-03T04:04:50.782Z,0
2023-03-03T04:05:21.664Z,0
2023-03-03T04:05:52.861Z,0
2023-03-03T04:06:23.105Z,0
2023-03-03T04:06:54.684Z,0
2023-03-03T04:07:25.148Z,0
2023-03-03T04:07:57.042Z,0
2023-03-03T04:08:27.154Z,0
2023-03-03T04:08:59.902Z,0
2023-03-03T04:09:29.107Z,0
2023-03-03T04:10:01.169Z,0
2023-03-03T04:10:31.846Z,0
2023-03-03T04:11:02.914Z,0
2023-03-03T04:11:33.639Z,0
2023-03-03T04:12:05.131Z,0
2023-03-03T04:12:35.072Z,0
2023-03-03T04:13:07.116Z,0
2023-03-03T04:13:37.107Z,0
2023-03-03T04:14:09.886Z,0
2023-03-03T04:14:39.117Z,0
2023-03-03T04:15:11.724Z,0
2023-03-03T04:15:41.136Z,0
2023-03-03T04:16:13.008Z,0
2023-03-03T04:16:43.106Z,0
2023-03-03T04:17:14.716Z,0
2023-03-03T04:17:45.618Z,0
2023-03-03T04:18:16.782Z,0
2023-03-03T04:18:47.087Z,0
2023-03-03T04:19:19.754Z,0
2023-03-03T04:19:49.014Z,0
2023-03-03T04:20:22.050Z,0
2023-03-03T04:20:51.144Z,0
2023-03-03T04:21:22.875Z,0
2023-03-03T04:21:53.065Z,0
2023-03-03T04:22:24.826Z,0
2023-03-03T04:22:55.040Z,0
2023-03-03T04:23:27.148Z,0
2023-03-03T04:23:57.056Z,0
2023-03-03T04:24:29.735Z,0
2023-03-03T04:24:59.083Z,0
2023-03-03T04:25:31.374Z,0
2023-03-03T04:26:02.051Z,0
2023-03-03T04:26:32.753Z,0
2023-03-03T04:27:03.361Z,0
2023-03-03T04:27:34.807Z,0
2023-03-03T04:28:05.707Z,0
2023-03-03T04:28:36.834Z,0
2023-03-03T04:29:07.247Z,0
2023-03-03T04:29:40.366Z,-.11
2023-03-03T04:30:10.315Z,-.11
2023-03-03T04:30:40.838Z,-.11
2023-03-03T04:31:11.692Z,-.11
2023-03-03T04:31:42.734Z,-.11
2023-03-03T04:32:13.127Z,-.11
2023-03-03T04:32:44.819Z,-.11
2023-03-03T04:33:15.134Z,-.11
2023-03-03T04:33:47.592Z,-.11
2023-03-03T04:34:17.150Z,-.11
2023-03-03T04:34:58.610Z,-.11
2023-03-03T04:35:19.566Z,-.11
2023-03-03T04:35:50.740Z,-.11
2023-03-03T04:36:21.545Z,-.11
2023-03-03T04:36:52.703Z,-.11
2023-03-03T04:37:23.056Z,-.11
2023-03-03T04:37:54.836Z,-.11
2023-03-03T04:38:25.009Z,0
2023-03-03T04:38:56.727Z,-.11
2023-03-03T04:39:27.021Z,-.11
2023-03-03T04:39:59.707Z,-.11
2023-03-03T04:40:38.485Z,-.11
2023-03-03T04:41:00.781Z,-.11
2023-03-03T04:41:31.184Z,-.11
2023-03-03T04:42:02.899Z,-.11
2023-03-03T04:42:33.056Z,-.11
2023-03-03T04:43:04.756Z,-.11
2023-03-03T04:43:35.035Z,-.11
2023-03-03T04:44:07.029Z,-.11
2023-03-03T04:44:37.409Z,-.11
2023-03-03T04:45:11.012Z,0
2023-03-03T04:45:39.135Z,0
2023-03-03T04:46:10.786Z,0
2023-03-03T04:46:41.098Z,0
2023-03-03T04:47:13.345Z,0
2023-03-03T04:47:43.030Z,0
2023-03-03T04:48:14.713Z,0
2023-03-03T04:48:45.013Z,0
2023-03-03T04:49:16.694Z,0
2023-03-03T04:49:47.103Z,0
2023-03-03T04:50:20.150Z,0
2023-03-03T04:50:48.989Z,0
2023-03-03T04:51:20.911Z,0
2023-03-03T04:51:51.056Z,0
2023-03-03T04:52:22.734Z,0
2023-03-03T04:52:53.027Z,0
2023-03-03T04:53:24.942Z,0
2023-03-03T04:53:54.999Z,0
2023-03-03T04:54:27.435Z,0
2023-03-03T04:54:57.044Z,0
2023-03-03T04:55:30.393Z,0
2023-03-03T04:55:59.017Z,0
2023-03-03T04:56:30.704Z,0
2023-03-03T04:57:01.423Z,0
2023-03-03T04:57:32.698Z,-.11
2023-03-03T04:58:03.736Z,-.11
2023-03-03T04:58:34.945Z,-.11
2023-03-03T04:59:05.108Z,-.11
2023-03-03T04:59:36.713Z,-.11
2023-03-03T05:00:07.900Z,-.11
2023-03-03T05:00:49.307Z,-.11
2023-03-03T05:01:09.476Z,-.11
2023-03-03T05:01:40.795Z,-.11
2023-03-03T05:02:11.048Z,-.11
2023-03-03T05:02:42.836Z,-.11
2023-03-03T05:03:13.133Z,-.11
2023-03-03T05:03:44.842Z,-.11
2023-03-03T05:04:15.066Z,-.11
2023-03-03T05:04:47.016Z,-.11
2023-03-03T05:05:17.457Z,-.11
2023-03-03T05:05:49.728Z,-.11
2023-03-03T05:06:19.037Z,-.11
2023-03-03T05:06:49.995Z,-.11
2023-03-03T05:07:21.066Z,-.11
2023-03-03T05:07:52.782Z,-.11
2023-03-03T05:08:23.060Z,-.11
2023-03-03T05:08:54.681Z,-.11
2023-03-03T05:09:25.025Z,-.11
2023-03-03T05:09:56.720Z,-.11
2023-03-03T05:10:28.434Z,-.11
2023-03-03T05:10:59.753Z,-.11
2023-03-03T05:11:29.316Z,-.11
2023-03-03T05:12:01.027Z,-.11
2023-03-03T05:12:31.254Z,-.11
2023-03-03T05:13:02.761Z,-.22
2023-03-03T05:13:41.236Z,-.22
2023-03-03T05:14:05.982Z,-.22
2023-03-03T05:14:35.011Z,-.22
2023-03-03T05:15:07.746Z,-.22
2023-03-03T05:15:37.075Z,-.22
2023-03-03T05:16:09.714Z,-.22
2023-03-03T05:16:39.067Z,-.22
2023-03-03T05:17:11.178Z,-.22
2023-03-03T05:17:41.213Z,-.22
2023-03-03T05:18:12.909Z,-.22
2023-03-03T05:18:43.096Z,-.22
2023-03-03T05:19:14.719Z,-.22
2023-03-03T05:19:45.040Z,-.22
2023-03-03T05:20:17.311Z,-.22
2023-03-03T05:20:47.112Z,-.22
2023-03-03T05:21:19.734Z,-.22
2023-03-03T05:21:48.993Z,-.22
2023-03-03T05:22:20.741Z,-.22
2023-03-03T05:22:51.029Z,-.22
2023-03-03T05:23:22.921Z,-.22
2023-03-03T05:23:53.043Z,-.22
2023-03-03T05:24:24.773Z,-.22
2023-03-03T05:24:55.711Z,-.22
2023-03-03T05:25:27.513Z,-.22
2023-03-03T05:25:57.012Z,-.22
2023-03-03T05:26:29.753Z,-.27
2023-03-03T05:26:59.181Z,-.27
2023-03-03T05:27:30.687Z,-.27
2023-03-03T05:28:01.473Z,-.27
2023-03-03T05:28:32.707Z,-.27
2023-03-03T05:29:03.296Z,-.27
2023-03-03T05:29:34.730Z,-.27
2023-03-03T05:30:05.058Z,-.27
2023-03-03T05:30:37.618Z,-.27
2023-03-03T05:31:07.525Z,-.27
2023-03-03T05:31:45.758Z,-.27
2023-03-03T05:32:09.968Z,-.38
2023-03-03T05:32:40.109Z,-.38
2023-03-03T05:33:11.749Z,-.38
2023-03-03T05:33:42.030Z,-.38
2023-03-03T05:34:13.805Z,-.38
2023-03-03T05:34:44.041Z,-.27
2023-03-03T05:35:16.124Z,-.27
2023-03-03T05:35:46.326Z,-.27
2023-03-03T05:36:17.708Z,-.27
2023-03-03T05:36:49.026Z,-.27
2023-03-03T05:37:19.719Z,-.27
2023-03-03T05:37:50.055Z,-.27
2023-03-03T05:38:22.308Z,-.38
2023-03-03T05:38:52.057Z,-.38
2023-03-03T05:39:23.712Z,-.38
2023-03-03T05:39:53.996Z,-.50
2023-03-03T05:40:26.448Z,-.50
2023-03-03T05:40:56.029Z,-.50
2023-03-03T05:41:27.702Z,-.50
2023-03-03T05:41:58.979Z,-.61
2023-03-03T05:42:29.721Z,-.61
2023-03-03T05:43:00.225Z,-.61
2023-03-03T05:43:31.982Z,-.61
2023-03-03T05:44:02.108Z,-.61
2023-03-03T05:44:33.873Z,-.61
2023-03-03T05:45:04.756Z,-.61
2023-03-03T05:45:36.688Z,-.72
2023-03-03T05:46:06.416Z,-.72
2023-03-03T05:46:37.914Z,-.72
2023-03-03T05:47:08.992Z,-.72
2023-03-03T05:47:40.766Z,-.72
2023-03-03T05:48:10.184Z,-.72
2023-03-03T05:48:41.962Z,-.72
2023-03-03T05:49:12.303Z,-.72
2023-03-03T05:49:43.891Z,-.61
2023-03-03T05:50:14.582Z,-.61
2023-03-03T05:50:45.895Z,-.61
2023-03-03T05:51:16.155Z,-.61
2023-03-03T05:51:48.257Z,-.61
2023-03-03T05:52:19.144Z,-.72
2023-03-03T05:52:49.804Z,-.72
2023-03-03T05:53:20.214Z,-.72
2023-03-03T05:53:51.960Z,-.72
2023-03-03T05:54:22.129Z,-.72
2023-03-03T05:54:53.854Z,-.72
2023-03-03T05:55:24.649Z,-.72
2023-03-03T05:55:55.883Z,-.72
2023-03-03T05:56:26.883Z,-.72
2023-03-03T05:56:57.906Z,-.61
2023-03-03T05:57:29.313Z,-.61
2023-03-03T05:57:59.837Z,-.61
2023-03-03T05:58:30.725Z,-.61
2023-03-03T05:59:02.093Z,-.61
2023-03-03T05:59:32.650Z,-.61
2023-03-03T06:00:04.637Z,-.61
2023-03-03T06:00:46.890Z,-.61
2023-03-03T06:01:06.490Z,-.61
2023-03-03T06:01:36.352Z,-.61
2023-03-03T06:02:07.986Z,-.61
2023-03-03T06:02:39.226Z,-.61
2023-03-03T06:03:09.975Z,-.50
2023-03-03T06:03:40.129Z,-.50
2023-03-03T06:04:11.952Z,-.50
2023-03-03T06:04:42.170Z,-.50
2023-03-03T06:05:14.683Z,-.50
2023-03-03T06:05:44.252Z,-.50
2023-03-03T06:06:15.947Z,-.50
2023-03-03T06:06:46.441Z,-.50
2023-03-03T06:07:17.151Z,-.50
2023-03-03T06:07:49.824Z,-.50
2023-03-03T06:08:19.882Z,-.38
2023-03-03T06:08:50.533Z,-.38
2023-03-03T06:09:22.021Z,-.27
2023-03-03T06:09:52.223Z,-.27
2023-03-03T06:10:24.252Z,-.27
2023-03-03T06:10:54.196Z,-.27
2023-03-03T06:11:25.857Z,-.22
2023-03-03T06:11:56.726Z,-.22
2023-03-03T06:12:27.878Z,-.22
2023-03-03T06:12:59.233Z,-.22
2023-03-03T06:13:29.796Z,-.22
2023-03-03T06:14:00.168Z,-.22
2023-03-03T06:14:32.717Z,-.22
2023-03-03T06:15:03.001Z,-.22
2023-03-03T06:15:34.760Z,-.22
2023-03-03T06:16:04.431Z,-.22
2023-03-03T06:16:35.892Z,-.22
2023-03-03T06:17:06.581Z,-.22
2023-03-03T06:17:37.843Z,-.22
2023-03-03T06:18:09.170Z,-.22
2023-03-03T06:18:40.274Z,-.22
2023-03-03T06:19:10.149Z,-.22
2023-03-03T06:19:41.900Z,-.22
2023-03-03T06:20:12.611Z,-.22
2023-03-03T06:20:47.356Z,-.22
2023-03-03T06:21:14.149Z,-.22
2023-03-03T06:21:46.088Z,-.22
2023-03-03T06:22:16.203Z,-.22
2023-03-03T06:22:47.853Z,-.22
2023-03-03T06:23:19.190Z,-.22
2023-03-03T06:23:49.925Z,-.22
2023-03-03T06:24:20.171Z,-.22
2023-03-03T06:24:51.916Z,-.22
2023-03-03T06:25:23.143Z,-.22
2023-03-03T06:25:53.864Z,-.22
2023-03-03T06:26:24.190Z,-.22
2023-03-03T06:26:55.841Z,-.22
2023-03-03T06:27:26.452Z,-.22
2023-03-03T06:27:57.826Z,-.22
2023-03-03T06:28:29.196Z,-.22
2023-03-03T06:28:59.877Z,-.22
2023-03-03T06:29:30.350Z,-.22
2023-03-03T06:30:03.156Z,-.22
2023-03-03T06:30:33.122Z,-.11
2023-03-03T06:31:04.031Z,-.11
2023-03-03T06:31:34.221Z,-.11
2023-03-03T06:32:06.390Z,-.11
2023-03-03T06:32:36.326Z,-.11
2023-03-03T06:33:07.834Z,-.11
2023-03-03T06:33:39.185Z,-.11
2023-03-03T06:34:09.864Z,-.11
2023-03-03T06:34:40.102Z,-.11
2023-03-03T06:35:12.383Z,-.11
2023-03-03T06:35:42.288Z,0
2023-03-03T06:36:13.887Z,0
2023-03-03T06:36:44.154Z,0
2023-03-03T06:37:15.850Z,0
2023-03-03T06:37:46.475Z,0
2023-03-03T06:38:17.834Z,0
2023-03-03T06:38:49.399Z,0
2023-03-03T06:39:19.824Z,0
2023-03-03T06:39:50.164Z,0
2023-03-03T06:40:22.249Z,0
2023-03-03T06:40:52.209Z,0
2023-03-03T06:41:23.903Z,0
2023-03-03T06:41:54.143Z,.11
2023-03-03T06:42:25.795Z,.11
2023-03-03T06:42:56.299Z,.11
2023-03-03T06:43:27.858Z,.11
2023-03-03T06:43:59.319Z,.11
2023-03-03T06:44:30.039Z,.11
2023-03-03T06:45:00.171Z,.11
2023-03-03T06:45:33.297Z,.11
2023-03-03T06:46:02.348Z,.11
2023-03-03T06:46:34.075Z,.11
2023-03-03T06:47:04.136Z,.11
2023-03-03T06:47:37.638Z,.11
2023-03-03T06:48:06.476Z,.11
2023-03-03T06:48:37.183Z,.11
2023-03-03T06:49:09.881Z,.11
2023-03-03T06:49:39.389Z,.11
2023-03-03T06:50:11.718Z,.11
2023-03-03T06:50:41.202Z,.11
2023-03-03T06:51:12.860Z,.11
2023-03-03T06:51:43.145Z,.11
2023-03-03T06:52:15.336Z,.11
2023-03-03T06:52:45.901Z,.11
2023-03-03T06:53:16.961Z,.11
2023-03-03T06:53:47.187Z,.11
2023-03-03T06:54:19.843Z,.11
2023-03-03T06:54:49.110Z,.11
2023-03-03T06:55:21.275Z,.11
2023-03-03T06:55:51.293Z,.11
2023-03-03T06:56:22.889Z,.11
2023-03-03T06:56:53.228Z,.11
2023-03-03T06:57:24.915Z,.11
2023-03-03T06:57:55.155Z,.22
2023-03-03T06:58:27.609Z,.22
2023-03-03T06:58:57.693Z,.22
2023-03-03T06:59:29.955Z,.22
2023-03-03T06:59:59.124Z,.27
2023-03-03T07:00:32.239Z,.27
2023-03-03T07:01:01.706Z,.27
2023-03-03T07:01:32.893Z,.27
2023-03-03T07:02:03.230Z,.27
2023-03-03T07:02:35.229Z,.27
2023-03-03T07:03:05.444Z,.27